Latest Weather Observations for Gold Coast Seaway

IDQ60801

Issued at 9:35 am EST Wednesday 3 September 2014 (issued every 30 minutes, with the page automatically refreshed every 10 minutes)

About weather observations | Map of weather stations | Latest weather observations for QLD | Other Formats
Station Details ID: 040764 Name: GOLD COAST SEAWAY Lat: -27.94 Lon: 153.43 Height: 2.98 m
Data from the previous 72 hours. | See also: Recent months at Gold Coast Seaway
Date/Time
EST
Temp
°C
App
Temp
°C
Dew
Point
Rel
Hum
%
Delta-T
°C
Wind Press
QNH
hPa
Press
MSL
hPa
Rain
since 9 am
mm
Dir
 
Spd
km/h
Gust
km/h
Spd
kts
Gust
kts
03/09:30am 18.3 10.9 1.8 33 7.5 W 30 41 16 22 1010.7 1010.7 0.0
03/09:00am 17.6 12.0 1.2 33 7.3 W 20 37 11 20 1011.0 1011.0 0.0
03/08:30am 16.7 11.0 0.4 33 7.1 W 20 33 11 18 1010.9 1010.9 0.0
03/08:00am 15.9 10.3 0.1 34 6.7 W 19 30 10 16 1010.7 1010.7 0.0
03/07:30am 14.7 7.3 -0.6 35 6.4 NW 28 32 15 17 1010.7 1010.7 0.0
03/07:00am 13.9 6.2 -0.2 38 5.9 WNW 30 35 16 19 1010.8 1010.8 0.0
03/06:30am 13.1 7.3 0.2 41 5.4 WNW 20 28 11 15 1010.7 1010.7 0.0
03/06:00am 12.6 7.1 1.6 47 4.7 WNW 20 24 11 13 1010.7 1010.7 0.0
03/05:30am 12.7 7.8 1.7 47 4.7 WNW 17 20 9 11 1010.8 1010.8 0.0
03/05:00am 12.8 7.8 1.5 46 4.8 WNW 17 22 9 12 1010.6 1010.6 0.0
03/04:30am 13.4 6.3 1.4 44 5.1 WNW 28 33 15 18 1010.3 1010.3 0.0
03/04:00am 13.6 5.8 1.9 45 5.1 NW 32 37 17 20 1010.0 1010.0 0.0
03/03:30am 13.9 7.6 1.5 43 5.4 WNW 24 32 13 17 1010.4 1010.4 0.0
03/03:00am 14.4 8.3 0.6 39 5.9 WNW 22 30 12 16 1010.8 1010.8 0.0
03/02:30am 14.8 6.9 1.0 39 5.9 WNW 32 37 17 20 1011.1 1011.1 0.0
03/02:00am 15.1 7.1 0.5 37 6.2 W 32 39 17 21 1011.3 1011.3 0.0
03/01:30am 15.4 8.2 0.8 37 6.3 W 28 39 15 21 1011.3 1011.3 0.0
03/01:00am 15.7 8.1 0.3 35 6.6 W 30 39 16 21 1011.3 1011.3 0.0
03/12:30am 15.9 8.0 0.9 36 6.5 WNW 32 39 17 21 1011.5 1011.5 0.0
03/12:00am 16.1 9.7 0.7 35 6.7 W 24 28 13 15 1011.9 1011.9 0.0
 
Date/Time
EST
Temp
°C
App
Temp
°C
Dew
Point
Rel
Hum
%
Delta-T
°C
Wind Press
QNH
hPa
Press
MSL
hPa
Rain
since 9 am
mm
Dir
 
Spd
km/h
Gust
km/h
Spd
kts
Gust
kts
02/11:30pm 16.6 9.4 0.7 34 6.9 W 28 37 15 20 1011.8 1011.8 0.0
02/11:00pm 17.0 10.1 0.2 32 7.3 W 26 33 14 18 1011.8 1011.8 0.0
02/10:36pm 17.4 9.4 0.6 32 7.3 W 32 50 17 27 1011.6 1011.6 0.0
02/10:30pm 17.6 9.3 -0.2 30 7.7 W 33 44 18 24 1011.6 1011.6 0.0
02/10:03pm 18.0 10.0 0.2 30 7.8 W 32 50 17 27 1011.7 1011.7 0.0
02/10:00pm 18.0 10.0 0.2 30 7.8 W 32 44 17 24 1011.7 1011.7 0.0
02/09:30pm 18.4 13.2 0.1 29 8.0 WSW 17 30 9 16 1011.7 1011.7 0.0
02/09:00pm 18.7 13.5 0.3 29 8.1 WSW 17 26 9 14 1011.5 1011.5 0.0
02/08:36pm 19.4 12.2 0.9 29 8.3 W 28 48 15 26 1011.2 1011.2 0.0
02/08:30pm 19.4 12.7 1.4 30 8.1 W 26 43 14 23 1011.1 1011.1 0.0
02/08:04pm 20.2 13.5 3.4 33 8.0 W 28 50 15 27 1010.6 1010.6 0.0
02/08:00pm 20.4 14.4 3.2 32 8.1 W 24 50 13 27 1010.4 1010.4 0.0
02/07:30pm 21.0 13.9 3.7 32 8.3 W 30 35 16 19 1009.5 1009.5 0.0
02/07:00pm 21.4 14.0 4.0 32 8.4 W 32 48 17 26 1009.1 1009.1 0.0
02/06:30pm 22.0 14.1 4.1 31 8.7 W 35 44 19 24 1008.5 1008.5 0.0
02/06:00pm 22.8 15.1 3.4 28 9.4 W 33 48 18 26 1008.0 1008.0 0.0
02/05:30pm 23.5 16.1 1.8 24 10.2 W 30 41 16 22 1007.4 1007.4 0.0
02/05:00pm 24.4 16.8 3.1 25 10.4 W 32 50 17 27 1006.8 1006.8 0.0
02/04:59pm 24.5 17.3 3.2 25 10.4 W 30 50 16 27 1006.8 1006.8 0.0
02/04:30pm 22.5 19.9 13.8 58 5.1 NNW 20 30 11 16 1006.5 1006.5 0.0
02/04:00pm 23.0 19.8 12.0 50 6.2 N 20 32 11 17 1005.8 1005.8 0.0
02/03:30pm 22.8 17.3 11.8 50 6.2 N 32 37 17 20 1005.6 1005.6 0.0
02/03:00pm 23.8 19.6 13.6 52 6.0 N 28 32 15 17 1005.9 1005.9 0.0
02/02:30pm 24.4 19.8 12.4 47 6.9 N 28 33 15 18 1006.5 1006.5 0.0
02/02:00pm 23.4 18.5 12.7 51 6.1 N 30 33 16 18 1007.1 1007.1 0.0
02/01:30pm 24.8 20.6 9.9 39 8.2 N 22 33 12 18 1007.5 1007.5 0.0
02/01:00pm 24.5 20.3 9.6 39 8.2 N 22 35 12 19 1008.2 1008.2 0.0
02/12:30pm 24.3 19.7 9.8 40 7.9 N 24 33 13 18 1009.3 1009.3 0.0
02/12:00pm 23.7 19.4 9.3 40 7.8 NNW 22 30 12 16 1009.8 1009.8 0.0
02/11:30am 22.2 19.1 10.4 47 6.5 NNW 17 22 9 12 1010.7 1010.7 0.0
02/11:00am 20.5 17.6 10.9 54 5.3 NW 17 22 9 12 1011.5 1011.5 0.0
02/10:30am 19.1 16.4 10.4 57 4.7 NW 15 20 8 11 1012.1 1012.1 0.0
02/10:00am 18.7 16.7 11.5 63 3.9 N 13 19 7 10 1012.5 1012.5 0.0
02/09:30am 18.3 16.2 12.3 68 3.3 NNW 15 22 8 12 1013.4 1013.4 0.0
02/09:00am 18.2 16.5 12.4 69 3.2 NNW 13 19 7 10 1013.4 1013.4 0.0
02/08:30am 17.7 16.0 12.6 72 2.8 N 13 17 7 9 1013.7 1013.7 0.0
02/08:00am 17.3 15.8 13.2 77 2.3 NNW 13 19 7 10 1013.9 1013.9 0.0
02/07:30am 16.7 15.2 13.0 79 2.1 NNW 13 17 7 9 1013.9 1013.9 0.0
02/07:00am 16.7 14.5 13.2 80 2.0 NNW 17 20 9 11 1013.9 1013.9 0.0
02/06:30am 16.3 14.3 12.7 79 2.0 NNW 15 19 8 10 1013.6 1013.6 0.0
02/06:00am 16.1 14.4 12.5 79 2.0 NNW 13 17 7 9 1013.8 1013.8 0.0
02/05:30am 16.5 14.9 12.8 79 2.1 NNW 13 19 7 10 1013.7 1013.7 0.0
02/05:00am 16.6 15.0 12.8 78 2.1 N 13 17 7 9 1013.5 1013.5 0.0
02/04:30am 16.5 14.5 12.8 79 2.1 NNW 15 19 8 10 1013.6 1013.6 0.0
02/04:00am 16.6 14.7 12.9 79 2.1 NNW 15 17 8 9 1013.8 1013.8 0.0
02/03:30am 16.5 14.5 12.7 78 2.1 N 15 19 8 10 1013.6 1013.6 0.0
02/03:00am 16.6 15.4 12.9 79 2.1 NNW 11 15 6 8 1013.8 1013.8 0.0
02/02:30am 16.9 16.3 13.4 80 2.0 NW 9 13 5 7 1014.1 1014.1 0.0
02/02:00am 17.0 16.1 13.7 81 1.9 NW 11 13 6 7 1014.2 1014.2 0.0
02/01:30am 17.5 16.0 14.2 81 1.9 NW 15 17 8 9 1014.6 1014.6 0.0
02/01:00am 17.8 16.1 14.7 82 1.8 NNW 17 22 9 12 1015.0 1015.0 0.0
02/12:30am 18.0 16.7 14.7 81 1.9 NNW 15 20 8 11 1015.3 1015.3 0.0
02/12:00am 18.5 17.0 15.4 82 1.8 NNW 17 26 9 14 1015.3 1015.3 0.0
 
Date/Time
EST
Temp
°C
App
Temp
°C
Dew
Point
Rel
Hum
%
Delta-T
°C
Wind Press
QNH
hPa
Press
MSL
hPa
Rain
since 9 am
mm
Dir
 
Spd
km/h
Gust
km/h
Spd
kts
Gust
kts
01/11:30pm 18.8 17.7 15.3 80 2.1 NNW 15 19 8 10 1015.4 1015.4 0.0
01/11:00pm 18.6 17.1 15.3 81 1.9 N 17 28 9 15 1015.6 1015.6 0.0
01/10:30pm 18.3 17.0 15.9 86 1.4 N 17 22 9 12 1015.5 1015.5 0.0
01/10:00pm 17.2 18.1 15.2 88 1.2 NW 4 9 2 5 1015.7 1015.7 0.0
01/09:30pm 16.5 16.4 13.8 84 1.5 W 7 9 4 5 1016.0 1016.0 0.0
01/09:00pm 17.5 17.6 14.4 82 1.8 WNW 7 9 4 5 1016.2 1016.2 0.0
01/08:30pm 18.6 18.6 15.3 81 1.9 NW 9 11 5 6 1016.1 1016.1 0.0
01/08:00pm 18.8 18.3 14.9 78 2.3 NNW 11 15 6 8 1016.1 1016.1 0.0
01/07:30pm 19.2 18.3 14.9 76 2.5 NNW 13 19 7 10 1016.1 1016.1 0.0
01/07:00pm 19.4 16.7 14.6 74 2.8 N 22 30 12 16 1015.6 1015.6 0.0
01/06:30pm 19.6 17.4 14.8 74 2.8 N 20 28 11 15 1015.3 1015.3 0.0
01/06:00pm 20.2 15.8 15.6 75 2.7 N 33 39 18 21 1015.0 1015.0 0.0
01/05:30pm 20.2 15.5 15.8 76 2.6 N 35 39 19 21 1015.1 1015.1 0.0
01/05:00pm 20.4 15.5 15.4 73 3.0 N 35 41 19 22 1014.9 1014.9 0.0
01/04:30pm 21.0 16.5 15.3 70 3.4 N 33 39 18 21 1014.7 1014.7 0.0
01/04:00pm 21.4 16.1 14.3 64 4.1 NNE 35 41 19 22 1014.1 1014.1 0.0
01/03:30pm 21.8 16.7 14.7 64 4.2 NNE 35 43 19 23 1014.3 1014.3 0.0
01/03:00pm 22.1 17.6 15.5 66 3.9 NNE 33 37 18 20 1014.6 1014.6 0.0
01/02:30pm 22.2 17.5 14.8 63 4.4 NNE 33 37 18 20 1014.8 1014.8 0.0
01/02:00pm 22.2 17.4 14.1 60 4.7 NNE 32 35 17 19 1015.2 1015.2 0.0
01/01:30pm 22.5 18.5 15.1 63 4.4 NNE 30 33 16 18 1015.6 1015.6 0.0
01/01:00pm 22.2 18.3 15.5 66 4.0 NNE 30 33 16 18 1015.8 1015.8 0.0
01/12:30pm 22.5 19.3 15.4 64 4.2 NE 26 32 14 17 1016.4 1016.4 0.0
01/12:00pm 21.9 19.0 15.0 65 4.1 NE 24 28 13 15 1017.0 1017.0 0.0
01/11:30am 22.2 19.0 15.3 65 4.1 NE 26 28 14 15 1017.5 1017.5 0.0
01/11:00am 23.2 21.2 15.0 60 4.9 NNE 19 22 10 12 1018.2 1018.2 0.0
01/10:30am 23.4 22.2 16.0 63 4.5 NNE 17 24 9 13 1018.7 1018.7 0.0
01/10:00am 22.6 21.8 15.2 63 4.4 N 13 20 7 11 1019.1 1019.1 0.0
01/09:30am 21.8 20.8 14.7 64 4.2 N 13 15 7 8 1019.3 1019.3 0.0
01/09:00am 20.5 20.0 13.7 65 3.9 N 9 13 5 7 1019.4 1019.4 0.0
01/08:30am 18.9 17.9 13.3 70 3.2 NW 11 13 6 7 1019.6 1019.6 0.0
01/08:00am 18.0 17.8 13.5 75 2.5 NW 7 9 4 5 1019.3 1019.3 0.0
01/07:30am 16.8 16.0 12.9 78 2.2 WNW 9 11 5 6 1019.1 1019.1 0.0
01/07:00am 16.0 15.3 13.3 84 1.5 WNW 9 9 5 5 1018.8 1018.8 0.0
01/06:30am 14.9 14.5 12.9 88 1.1 WNW 7 9 4 5 1018.6 1018.6 0.0
01/06:00am 15.4 13.9 13.1 86 1.3 WNW 13 15 7 8 1018.5 1018.5 0.0
01/05:30am 15.2 14.0 12.9 86 1.3 W 11 13 6 7 1018.1 1018.1 0.0
01/05:00am 15.0 13.8 12.7 86 1.3 SSW 11 13 6 7 1017.7 1017.7 0.0
01/04:30am 15.4 14.7 13.1 86 1.3 SW 9 11 5 6 1017.8 1017.8 0.0
01/04:00am 15.7 15.0 13.2 85 1.4 SW 9 11 5 6 1017.9 1017.9 0.0
01/03:30am 15.9 15.6 13.2 84 1.5 W 7 9 4 5 1017.8 1017.8 0.0
01/03:00am 15.9 15.2 13.2 84 1.5 W 9 11 5 6 1017.9 1017.9 0.0
01/02:30am 15.9 15.3 13.4 85 1.4 WSW 9 11 5 6 1018.0 1018.0 0.0
01/02:00am 15.4 14.8 13.4 88 1.1 WSW 9 11 5 6 1018.0 1018.0 0.0
01/01:30am 15.3 14.3 13.5 89 1.0 SW 11 13 6 7 1018.1 1018.1 0.0
01/01:00am 15.1 14.4 13.3 89 1.0 SW 9 13 5 7 1018.3 1018.3 0.0
01/12:30am 15.3 14.6 13.1 87 1.2 SW 9 11 5 6 1018.4 1018.4 0.0
01/12:00am 15.7 15.1 13.5 87 1.2 SW 9 11 5 6 1018.5 1018.5 0.0
 
Date/Time
EST
Temp
°C
App
Temp
°C
Dew
Point
Rel
Hum
%
Delta-T
°C
Wind Press
QNH
hPa
Press
MSL
hPa
Rain
since 9 am
mm
Dir
 
Spd
km/h
Gust
km/h
Spd
kts
Gust
kts
31/11:30pm 15.9 15.4 13.7 87 1.2 SW 9 11 5 6 1018.6 1018.6 0.0
31/11:00pm 15.6 14.9 13.1 85 1.4 SW 9 11 5 6 1018.7 1018.7 0.0
31/10:30pm 16.1 15.2 13.8 86 1.3 WSW 11 13 6 7 1018.7 1018.7 0.0
31/10:00pm 15.8 15.2 13.5 86 1.3 SSW 9 11 5 6 1018.5 1018.5 0.0
31/09:30pm 16.1 14.8 13.8 86 1.3 SSW 13 15 7 8 1018.6 1018.6 0.0
31/09:00pm 16.2 15.3 13.7 85 1.4 SSW 11 15 6 8 1018.5 1018.5 0.0
31/08:30pm 16.5 15.1 13.4 82 1.7 S 13 15 7 8 1018.5 1018.5 0.0
31/08:00pm 17.2 15.9 13.7 80 2.0 S 13 17 7 9 1018.3 1018.3 0.0
31/07:30pm 18.3 15.5 14.4 78 2.2 SSE 22 28 12 15 1018.1 1018.1 0.0
31/07:00pm 18.4 15.3 14.5 78 2.2 SSE 24 28 13 15 1017.9 1017.9 0.0
31/06:30pm 18.6 15.1 14.5 77 2.4 SSE 26 30 14 16 1017.5 1017.5 0.0
31/06:00pm 18.6 15.2 14.7 78 2.3 SSE 26 32 14 17 1017.1 1017.1 0.0
31/05:30pm 18.8 14.9 14.5 76 2.5 SE 28 33 15 18 1016.9 1016.9 0.0
31/05:00pm 19.5 15.2 14.3 72 3.0 SE 30 35 16 19 1016.7 1016.7 0.0
31/04:30pm 20.0 15.2 13.9 68 3.5 SE 32 35 17 19 1016.4 1016.4 0.0
31/04:00pm 20.3 15.9 14.2 68 3.5 SE 30 33 16 18 1016.2 1016.2 0.0
31/03:30pm 20.7 16.3 14.1 66 3.8 SE 30 33 16 18 1016.1 1016.1 0.0
31/03:00pm 20.9 16.4 13.8 64 4.1 SE 30 35 16 19 1016.0 1016.0 0.0
31/02:30pm 21.5 17.4 13.7 61 4.5 SE 28 32 15 17 1015.9 1015.9 0.0
31/02:00pm 21.8 17.7 13.9 61 4.6 ESE 28 32 15 17 1016.0 1016.0 0.0
31/01:30pm 21.7 17.8 14.4 63 4.3 SE 28 32 15 17 1016.1 1016.1 0.0
31/01:00pm 22.4 19.4 13.7 58 5.0 ESE 22 28 12 15 1016.4 1016.4 0.0
31/12:30pm 22.8 20.2 13.3 55 5.5 ESE 19 24 10 13 1016.8 1016.8 0.0
31/12:00pm 23.2 20.8 12.8 52 6.0 ESE 17 19 9 10 1017.2 1017.2 0.0
31/11:30am 23.2 21.8 13.4 54 5.7 ESE 13 17 7 9 1017.6 1017.6 0.0
31/11:00am 22.5 21.5 12.4 52 5.7 E 9 11 5 6 1018.0 1018.0 0.0
31/10:30am 22.1 20.9 11.5 51 5.9 SE 9 13 5 7 1018.3 1018.3 0.0
31/10:00am 21.5 20.1 10.9 51 5.8 SSE 9 11 5 6 1018.7 1018.7 0.0

Other Formats:

Comma delimited format used in spreadsheet applications
http://www.bom.gov.au/fwo/IDQ60801/IDQ60801.94580.axf

JavaScript Object Notation format (JSON) in row-major order
http://www.bom.gov.au/fwo/IDQ60801/IDQ60801.94580.json